Thomastown, Mississippi
Current Conditions -  °F | °C
As of 10:54 AM on Wednesday 26 Nov 2014 (Local Time) from KJAN Reporting Station
Clear Clear  
Wind Chill: 57°   Ceiling: Unl
Heat Index: 57°   Visibility: 10mi
Dew Point: 29°   Wind: 12mph
Humidity: 34%   Direction: 190°S
Pressure: 30.17"   Gusts: NA
Location:  32.86°N, 89.67°W
Report Text: KJAN 261654Z 19010KT 10SM CLR 14/M02 A3017 RMK AO2 SLP217 T01391017
Loading
Personal Weather Stations






























Interactive Weather Map New forecast layout! Learn more

10-Day Weather Forecast

Advertisements
Track Severe Weather on mobile